sensor_id;sensor_type;location;lat;lon;timestamp;pressure;altitude;pressure_sealevel;temperature;humidity
42385;BME280;28042;43.986;22.860;2023-02-28T00:01:30;102119.91;;;3.76;100.00
42385;BME280;28042;43.986;22.860;2023-02-28T00:03:55;102124.31;;;3.77;100.00
42385;BME280;28042;43.986;22.860;2023-02-28T00:06:21;102115.97;;;3.80;100.00
42385;BME280;28042;43.986;22.860;2023-02-28T00:08:46;102131.91;;;3.72;100.00
42385;BME280;28042;43.986;22.860;2023-02-28T00:11:12;102136.44;;;3.71;100.00
42385;BME280;28042;43.986;22.860;2023-02-28T00:13:42;102130.44;;;3.67;100.00
42385;BME280;28042;43.986;22.860;2023-02-28T00:16:08;102138.75;;;3.64;100.00
42385;BME280;28042;43.986;22.860;2023-02-28T00:18:34;102143.91;;;3.56;100.00
42385;BME280;28042;43.986;22.860;2023-02-28T00:21:00;102138.09;;;3.50;100.00
42385;BME280;28042;43.986;22.860;2023-02-28T00:23:25;102141.78;;;3.49;100.00
42385;BME280;28042;43.986;22.860;2023-02-28T00:25:51;102141.00;;;3.47;100.00
42385;BME280;28042;43.986;22.860;2023-02-28T00:28:16;102151.41;;;3.40;100.00
42385;BME280;28042;43.986;22.860;2023-02-28T00:30:42;102150.91;;;3.35;100.00
42385;BME280;28042;43.986;22.860;2023-02-28T00:33:07;102161.94;;;3.32;100.00
42385;BME280;28042;43.986;22.860;2023-02-28T00:35:33;102168.38;;;3.29;100.00
42385;BME280;28042;43.986;22.860;2023-02-28T00:37:58;102182.09;;;3.26;100.00
42385;BME280;28042;43.986;22.860;2023-02-28T00:40:23;102183.09;;;3.25;100.00
42385;BME280;28042;43.986;22.860;2023-02-28T00:42:49;102179.09;;;3.31;100.00
42385;BME280;28042;43.986;22.860;2023-02-28T00:45:14;102172.72;;;3.32;100.00
42385;BME280;28042;43.986;22.860;2023-02-28T00:47:39;102178.09;;;3.32;100.00
42385;BME280;28042;43.986;22.860;2023-02-28T00:50:05;102182.56;;;3.44;100.00
42385;BME280;28042;43.986;22.860;2023-02-28T00:52:30;102179.28;;;3.52;100.00
42385;BME280;28042;43.986;22.860;2023-02-28T00:54:56;102183.13;;;3.60;100.00
42385;BME280;28042;43.986;22.860;2023-02-28T00:57:21;102175.50;;;3.54;100.00
42385;BME280;28042;43.986;22.860;2023-02-28T00:59:46;102176.47;;;3.53;100.00
42385;BME280;28042;43.986;22.860;2023-02-28T01:02:12;102185.31;;;3.55;100.00
42385;BME280;28042;43.986;22.860;2023-02-28T01:04:37;102175.00;;;3.49;100.00
42385;BME280;28042;43.986;22.860;2023-02-28T01:07:02;102176.44;;;3.42;100.00
42385;BME280;28042;43.986;22.860;2023-02-28T01:09:28;102172.03;;;3.41;100.00
42385;BME280;28042;43.986;22.860;2023-02-28T01:11:53;102174.19;;;3.36;100.00
42385;BME280;28042;43.986;22.860;2023-02-28T01:14:19;102176.56;;;3.40;100.00
42385;BME280;28042;43.986;22.860;2023-02-28T01:16:44;102172.03;;;3.41;100.00
42385;BME280;28042;43.986;22.860;2023-02-28T01:19:09;102167.03;;;3.48;100.00
42385;BME280;28042;43.986;22.860;2023-02-28T01:21:35;102168.63;;;3.50;100.00
42385;BME280;28042;43.986;22.860;2023-02-28T01:24:01;102159.88;;;3.47;100.00
42385;BME280;28042;43.986;22.860;2023-02-28T01:26:26;102170.31;;;3.40;100.00
42385;BME280;28042;43.986;22.860;2023-02-28T01:28:52;102170.50;;;3.37;100.00
42385;BME280;28042;43.986;22.860;2023-02-28T01:31:18;102176.59;;;3.28;100.00
42385;BME280;28042;43.986;22.860;2023-02-28T01:33:45;102175.13;;;3.24;100.00
42385;BME280;28042;43.986;22.860;2023-02-28T01:36:14;102180.09;;;3.17;100.00
42385;BME280;28042;43.986;22.860;2023-02-28T01:38:40;102187.63;;;3.25;100.00
42385;BME280;28042;43.986;22.860;2023-02-28T01:41:06;102179.16;;;3.29;100.00
42385;BME280;28042;43.986;22.860;2023-02-28T01:46:09;102188.59;;;3.24;100.00
42385;BME280;28042;43.986;22.860;2023-02-28T01:48:36;102186.53;;;3.27;100.00
42385;BME280;28042;43.986;22.860;2023-02-28T01:51:05;102186.06;;;3.33;100.00
42385;BME280;28042;43.986;22.860;2023-02-28T01:53:34;102179.59;;;3.36;100.00
42385;BME280;28042;43.986;22.860;2023-02-28T01:56:02;102181.19;;;3.38;100.00
42385;BME280;28042;43.986;22.860;2023-02-28T01:58:28;102178.88;;;3.45;100.00
42385;BME280;28042;43.986;22.860;2023-02-28T02:00:54;102181.66;;;3.56;100.00
42385;BME280;28042;43.986;22.860;2023-02-28T02:03:19;102181.88;;;3.53;100.00
42385;BME280;28042;43.986;22.860;2023-02-28T02:05:45;102179.91;;;3.55;100.00
42385;BME280;28042;43.986;22.860;2023-02-28T02:08:15;102176.28;;;3.56;100.00
42385;BME280;28042;43.986;22.860;2023-02-28T02:10:45;102189.06;;;3.42;100.00
42385;BME280;28042;43.986;22.860;2023-02-28T02:26:11;102183.31;;;3.22;100.00
42385;BME280;28042;43.986;22.860;2023-02-28T02:28:55;102177.94;;;3.22;100.00
42385;BME280;28042;43.986;22.860;2023-02-28T02:36:33;102190.03;;;3.17;100.00
42385;BME280;28042;43.986;22.860;2023-02-28T02:41:38;102186.53;;;3.27;100.00
42385;BME280;28042;43.986;22.860;2023-02-28T02:46:50;102175.28;;;3.33;100.00
42385;BME280;28042;43.986;22.860;2023-02-28T02:49:21;102172.03;;;3.41;100.00
42385;BME280;28042;43.986;22.860;2023-02-28T02:51:49;102160.38;;;3.40;100.00
42385;BME280;28042;43.986;22.860;2023-02-28T02:54:17;102155.59;;;3.44;100.00
42385;BME280;28042;43.986;22.860;2023-02-28T02:56:44;102152.16;;;3.42;100.00
42385;BME280;28042;43.986;22.860;2023-02-28T02:59:11;102151.50;;;3.38;100.00
42385;BME280;28042;43.986;22.860;2023-02-28T03:01:38;102166.84;;;3.38;100.00
42385;BME280;28042;43.986;22.860;2023-02-28T03:04:12;102180.56;;;3.35;100.00
42385;BME280;28042;43.986;22.860;2023-02-28T03:06:38;102180.03;;;3.30;100.00
42385;BME280;28042;43.986;22.860;2023-02-28T03:09:03;102184.13;;;3.35;100.00
42385;BME280;28042;43.986;22.860;2023-02-28T03:11:29;102193.31;;;3.33;100.00
42385;BME280;28042;43.986;22.860;2023-02-28T03:14:10;102195.75;;;3.36;100.00
42385;BME280;28042;43.986;22.860;2023-02-28T03:24:09;102215.75;;;3.57;100.00
42385;BME280;28042;43.986;22.860;2023-02-28T03:26:39;102220.28;;;3.57;100.00
42385;BME280;28042;43.986;22.860;2023-02-28T03:31:46;102229.63;;;3.40;100.00
42385;BME280;28042;43.986;22.860;2023-02-28T03:34:17;102232.09;;;3.43;100.00
42385;BME280;28042;43.986;22.860;2023-02-28T03:36:45;102239.09;;;3.46;100.00
42385;BME280;28042;43.986;22.860;2023-02-28T03:39:21;102245.13;;;3.49;100.00
42385;BME280;28042;43.986;22.860;2023-02-28T03:41:51;102249.25;;;3.42;100.00
42385;BME280;28042;43.986;22.860;2023-02-28T03:44:19;102243.41;;;3.48;100.00
42385;BME280;28042;43.986;22.860;2023-02-28T03:46:48;102254.09;;;3.50;100.00
42385;BME280;28042;43.986;22.860;2023-02-28T03:49:18;102248.81;;;3.48;100.00
42385;BME280;28042;43.986;22.860;2023-02-28T03:51:44;102244.59;;;3.44;100.00
42385;BME280;28042;43.986;22.860;2023-02-28T03:54:16;102253.91;;;3.40;100.00
42385;BME280;28042;43.986;22.860;2023-02-28T03:56:46;102254.97;;;3.37;100.00
42385;BME280;28042;43.986;22.860;2023-02-28T03:59:25;102254.66;;;3.42;100.00
42385;BME280;28042;43.986;22.860;2023-02-28T04:01:53;102259.81;;;3.45;100.00
42385;BME280;28042;43.986;22.860;2023-02-28T04:04:20;102255.94;;;3.49;100.00
42385;BME280;28042;43.986;22.860;2023-02-28T04:06:45;102259.50;;;3.50;100.00
42385;BME280;28042;43.986;22.860;2023-02-28T04:09:12;102258.91;;;3.57;100.00
42385;BME280;28042;43.986;22.860;2023-02-28T04:11:38;102253.53;;;3.57;100.00
42385;BME280;28042;43.986;22.860;2023-02-28T04:14:05;102263.47;;;3.57;100.00
42385;BME280;28042;43.986;22.860;2023-02-28T04:16:31;102268.66;;;3.47;100.00
42385;BME280;28042;43.986;22.860;2023-02-28T04:18:57;102272.13;;;3.49;100.00
42385;BME280;28042;43.986;22.860;2023-02-28T04:21:31;102273.84;;;3.37;100.00
42385;BME280;28042;43.986;22.860;2023-02-28T04:23:56;102275.19;;;3.32;100.00
42385;BME280;28042;43.986;22.860;2023-02-28T04:26:25;102271.31;;;3.23;100.00
42385;BME280;28042;43.986;22.860;2023-02-28T04:28:50;102273.56;;;3.29;100.00
42385;BME280;28042;43.986;22.860;2023-02-28T04:31:16;102274.53;;;3.28;100.00
42385;BME280;28042;43.986;22.860;2023-02-28T04:33:41;102284.13;;;3.32;100.00
42385;BME280;28042;43.986;22.860;2023-02-28T04:36:07;102277.03;;;3.31;100.00
42385;BME280;28042;43.986;22.860;2023-02-28T04:38:37;102270.47;;;3.23;100.00
42385;BME280;28042;43.986;22.860;2023-02-28T04:41:02;102271.44;;;3.22;100.00
42385;BME280;28042;43.986;22.860;2023-02-28T04:43:28;102265.81;;;3.25;100.00
42385;BME280;28042;43.986;22.860;2023-02-28T04:45:54;102269.25;;;3.27;100.00
42385;BME280;28042;43.986;22.860;2023-02-28T04:48:27;102269.50;;;3.24;100.00
42385;BME280;28042;43.986;22.860;2023-02-28T04:50:52;102274.13;;;3.22;100.00
42385;BME280;28042;43.986;22.860;2023-02-28T04:53:18;102279.06;;;3.28;100.00
42385;BME280;28042;43.986;22.860;2023-02-28T04:55:43;102267.31;;;3.29;100.00
42385;BME280;28042;43.986;22.860;2023-02-28T04:58:09;102281.03;;;3.26;100.00
42385;BME280;28042;43.986;22.860;2023-02-28T05:00:35;102281.03;;;3.26;100.00
42385;BME280;28042;43.986;22.860;2023-02-28T05:03:00;102282.75;;;3.27;100.00
42385;BME280;28042;43.986;22.860;2023-02-28T05:05:26;102284.69;;;3.25;100.00
42385;BME280;28042;43.986;22.860;2023-02-28T05:07:51;102286.41;;;3.26;100.00
42385;BME280;28042;43.986;22.860;2023-02-28T05:10:18;102287.91;;;3.30;100.00
42385;BME280;28042;43.986;22.860;2023-02-28T05:12:44;102286.19;;;3.29;100.00
42385;BME280;28042;43.986;22.860;2023-02-28T05:15:12;102296.75;;;3.32;100.00
42385;BME280;28042;43.986;22.860;2023-02-28T05:17:37;102308.38;;;3.45;100.00
42385;BME280;28042;43.986;22.860;2023-02-28T05:20:03;102312.69;;;3.48;100.00
42385;BME280;28042;43.986;22.860;2023-02-28T05:22:29;102306.22;;;3.50;100.00
42385;BME280;28042;43.986;22.860;2023-02-28T05:24:55;102318.28;;;3.57;100.00
42385;BME280;28042;43.986;22.860;2023-02-28T05:27:20;102318.28;;;3.57;100.00
42385;BME280;28042;43.986;22.860;2023-02-28T05:29:46;102330.13;;;3.55;100.00
42385;BME280;28042;43.986;22.860;2023-02-28T05:32:11;102325.16;;;3.61;100.00
42385;BME280;28042;43.986;22.860;2023-02-28T05:34:37;102332.50;;;3.59;100.00
42385;BME280;28042;43.986;22.860;2023-02-28T05:37:03;102330.78;;;3.58;100.00
42385;BME280;28042;43.986;22.860;2023-02-28T05:39:28;102337.91;;;3.59;100.00
42385;BME280;28042;43.986;22.860;2023-02-28T05:41:54;102339.88;;;3.57;100.00
42385;BME280;28042;43.986;22.860;2023-02-28T05:44:19;102336.38;;;3.55;100.00
42385;BME280;28042;43.986;22.860;2023-02-28T05:46:44;102345.03;;;3.60;100.00
42385;BME280;28042;43.986;22.860;2023-02-28T05:49:10;102343.97;;;3.50;100.00
42385;BME280;28042;43.986;22.860;2023-02-28T05:51:35;102350.56;;;3.46;100.00
42385;BME280;28042;43.986;22.860;2023-02-28T05:54:01;102352.38;;;3.46;100.00
42385;BME280;28042;43.986;22.860;2023-02-28T05:56:27;102346.38;;;3.42;100.00
42385;BME280;28042;43.986;22.860;2023-02-28T05:58:52;102345.94;;;3.48;100.00
42385;BME280;28042;43.986;22.860;2023-02-28T06:01:21;102356.72;;;3.48;100.00
42385;BME280;28042;43.986;22.860;2023-02-28T06:03:47;102359.72;;;3.56;100.00
42385;BME280;28042;43.986;22.860;2023-02-28T06:06:13;102356.06;;;3.57;100.00
42385;BME280;28042;43.986;22.860;2023-02-28T06:08:38;102370.28;;;3.59;100.00
42385;BME280;28042;43.986;22.860;2023-02-28T06:11:04;102370.16;;;3.61;100.00
42385;BME280;28042;43.986;22.860;2023-02-28T06:13:29;102369.00;;;3.52;100.00
42385;BME280;28042;43.986;22.860;2023-02-28T06:15:54;102367.28;;;3.51;100.00
42385;BME280;28042;43.986;22.860;2023-02-28T06:18:20;102375.69;;;3.59;100.00
42385;BME280;28042;43.986;22.860;2023-02-28T06:20:51;102375.69;;;3.59;100.00
42385;BME280;28042;43.986;22.860;2023-02-28T06:23:18;102381.50;;;3.66;100.00
42385;BME280;28042;43.986;22.860;2023-02-28T06:25:46;102371.34;;;3.69;100.00
42385;BME280;28042;43.986;22.860;2023-02-28T06:28:11;102365.31;;;3.66;100.00
42385;BME280;28042;43.986;22.860;2023-02-28T06:30:37;102375.91;;;3.56;100.00
42385;BME280;28042;43.986;22.860;2023-02-28T06:33:02;102380.75;;;3.51;100.00
42385;BME280;28042;43.986;22.860;2023-02-28T06:54:24;102402.47;;;3.11;100.00
42385;BME280;28042;43.986;22.860;2023-02-28T06:56:50;102411.34;;;3.14;100.00
42385;BME280;28042;43.986;22.860;2023-02-28T06:59:16;102372.16;;;2.82;100.00
42385;BME280;28042;43.986;22.860;2023-02-28T07:01:42;102374.84;;;2.82;100.00
42385;BME280;28042;43.986;22.860;2023-02-28T07:04:08;102357.72;;;2.83;100.00
42385;BME280;28042;43.986;22.860;2023-02-28T07:06:33;102385.78;;;3.06;100.00
42385;BME280;28042;43.986;22.860;2023-02-28T07:08:59;102403.88;;;3.17;100.00
42385;BME280;28042;43.986;22.860;2023-02-28T07:11:26;102384.69;;;3.09;100.00
42385;BME280;28042;43.986;22.860;2023-02-28T07:13:53;102400.75;;;3.36;100.00
42385;BME280;28042;43.986;22.860;2023-02-28T07:16:19;102409.47;;;3.27;100.00
42385;BME280;28042;43.986;22.860;2023-02-28T07:18:45;102361.50;;;3.06;100.00
42385;BME280;28042;43.986;22.860;2023-02-28T07:21:11;102401.72;;;3.48;100.00
42385;BME280;28042;43.986;22.860;2023-02-28T07:23:37;102400.09;;;3.45;100.00
42385;BME280;28042;43.986;22.860;2023-02-28T07:26:04;102412.16;;;3.52;100.00
42385;BME280;28042;43.986;22.860;2023-02-28T07:28:29;102412.59;;;3.46;100.00
42385;BME280;28042;43.986;22.860;2023-02-28T07:30:55;102394.69;;;3.45;100.00
42385;BME280;28042;43.986;22.860;2023-02-28T07:33:20;102387.91;;;3.27;100.00
42385;BME280;28042;43.986;22.860;2023-02-28T07:35:46;102413.47;;;3.34;100.00
42385;BME280;28042;43.986;22.860;2023-02-28T07:38:11;102366.88;;;3.19;100.00
42385;BME280;28042;43.986;22.860;2023-02-28T07:40:39;102366.03;;;3.19;100.00
42385;BME280;28042;43.986;22.860;2023-02-28T07:43:04;102405.03;;;3.38;100.00
42385;BME280;28042;43.986;22.860;2023-02-28T07:45:30;102414.09;;;3.37;100.00
42385;BME280;28042;43.986;22.860;2023-02-28T07:47:56;102412.59;;;3.46;100.00
42385;BME280;28042;43.986;22.860;2023-02-28T07:50:22;102437.84;;;3.45;100.00
42385;BME280;28042;43.986;22.860;2023-02-28T07:52:47;102389.97;;;3.23;100.00
42385;BME280;28042;43.986;22.860;2023-02-28T07:55:13;102456.63;;;3.47;100.00
42385;BME280;28042;43.986;22.860;2023-02-28T07:57:40;102456.63;;;3.59;100.00
42385;BME280;28042;43.986;22.860;2023-02-28T08:00:08;102455.66;;;3.60;100.00
42385;BME280;28042;43.986;22.860;2023-02-28T08:02:38;102446.69;;;3.60;100.00
42385;BME280;28042;43.986;22.860;2023-02-28T08:05:04;102438.06;;;3.42;100.00
42385;BME280;28042;43.986;22.860;2023-02-28T08:07:30;102453.91;;;3.47;100.00
42385;BME280;28042;43.986;22.860;2023-02-28T08:09:55;102452.84;;;3.49;100.00
42385;BME280;28042;43.986;22.860;2023-02-28T08:12:21;102404.63;;;3.19;100.00
42385;BME280;28042;43.986;22.860;2023-02-28T08:14:46;102451.47;;;3.56;100.00
42385;BME280;28042;43.986;22.860;2023-02-28T08:17:12;102453.69;;;3.62;100.00
42385;BME280;28042;43.986;22.860;2023-02-28T08:19:38;102445.94;;;3.45;100.00
42385;BME280;28042;43.986;22.860;2023-02-28T08:22:04;102439.16;;;3.27;100.00
42385;BME280;28042;43.986;22.860;2023-02-28T08:24:29;102452.00;;;3.36;100.00
42385;BME280;28042;43.986;22.860;2023-02-28T08:26:55;102426.75;;;3.24;100.00
42385;BME280;28042;43.986;22.860;2023-02-28T08:29:21;102457.06;;;3.28;100.00
42385;BME280;28042;43.986;22.860;2023-02-28T08:31:46;102461.38;;;3.43;100.00
42385;BME280;28042;43.986;22.860;2023-02-28T08:34:13;102436.53;;;3.12;100.00
42385;BME280;28042;43.986;22.860;2023-02-28T08:36:39;102463.88;;;3.33;100.00
42385;BME280;28042;43.986;22.860;2023-02-28T08:39:06;102461.81;;;3.37;100.00
42385;BME280;28042;43.986;22.860;2023-02-28T08:41:32;102445.22;;;3.30;100.00
42385;BME280;28042;43.986;22.860;2023-02-28T08:43:59;102417.25;;;3.19;100.00
42385;BME280;28042;43.986;22.860;2023-02-28T08:46:25;102464.81;;;3.45;100.00
42385;BME280;28042;43.986;22.860;2023-02-28T08:48:52;102397.50;;;3.18;100.00
42385;BME280;28042;43.986;22.860;2023-02-28T08:51:18;102464.16;;;3.54;100.00
42385;BME280;28042;43.986;22.860;2023-02-28T08:53:52;102454.25;;;3.42;100.00
42385;BME280;28042;43.986;22.860;2023-02-28T08:56:18;102451.88;;;3.50;100.00
42385;BME280;28042;43.986;22.860;2023-02-28T08:58:44;102415.19;;;3.35;100.00
42385;BME280;28042;43.986;22.860;2023-02-28T09:01:16;102468.41;;;3.58;100.00
42385;BME280;28042;43.986;22.860;2023-02-28T09:03:43;102468.72;;;3.66;100.00
42385;BME280;28042;43.986;22.860;2023-02-28T09:06:10;102460.31;;;3.58;100.00
42385;BME280;28042;43.986;22.860;2023-02-28T09:08:36;102447.88;;;3.56;100.00
42385;BME280;28042;43.986;22.860;2023-02-28T09:11:02;102473.44;;;3.76;100.00
42385;BME280;28042;43.986;22.860;2023-02-28T09:13:29;102411.34;;;3.39;100.00
42385;BME280;28042;43.986;22.860;2023-02-28T09:15:58;102409.06;;;3.33;100.00
42385;BME280;28042;43.986;22.860;2023-02-28T09:18:25;102424.16;;;3.35;100.00
42385;BME280;28042;43.986;22.860;2023-02-28T09:20:51;102327.44;;;2.80;100.00
42385;BME280;28042;43.986;22.860;2023-02-28T09:23:17;102460.72;;;3.65;100.00
42385;BME280;28042;43.986;22.860;2023-02-28T09:25:49;102470.44;;;3.67;100.00
42385;BME280;28042;43.986;22.860;2023-02-28T09:28:15;102398.47;;;3.43;100.00
42385;BME280;28042;43.986;22.860;2023-02-28T09:30:45;102394.50;;;3.48;100.00
42385;BME280;28042;43.986;22.860;2023-02-28T09:33:12;102456.34;;;3.88;100.00
42385;BME280;28042;43.986;22.860;2023-02-28T09:35:38;102470.53;;;3.79;100.00
42385;BME280;28042;43.986;22.860;2023-02-28T09:38:04;102458.75;;;3.80;100.00
42385;BME280;28042;43.986;22.860;2023-02-28T09:40:30;102464.59;;;3.74;100.00
42385;BME280;28042;43.986;22.860;2023-02-28T09:42:57;102482.53;;;3.75;100.00
42385;BME280;28042;43.986;22.860;2023-02-28T09:45:41;102420.38;;;3.38;100.00
42385;BME280;28042;43.986;22.860;2023-02-28T09:48:16;102458.13;;;3.63;100.00
42385;BME280;28042;43.986;22.860;2023-02-28T09:50:51;102471.94;;;3.59;100.00
42385;BME280;28042;43.986;22.860;2023-02-28T09:53:35;102471.53;;;3.52;100.00
42385;BME280;28042;43.986;22.860;2023-02-28T09:56:21;102458.44;;;3.46;100.00
42385;BME280;28042;43.986;22.860;2023-02-28T09:58:58;102438.28;;;3.52;100.00
42385;BME280;28042;43.986;22.860;2023-02-28T10:07:13;102468.91;;;3.63;100.00
42385;BME280;28042;43.986;22.860;2023-02-28T10:09:45;102464.06;;;3.56;100.00
42385;BME280;28042;43.986;22.860;2023-02-28T10:12:12;102469.13;;;3.86;100.00
42385;BME280;28042;43.986;22.860;2023-02-28T10:14:45;102484.00;;;3.91;100.00
42385;BME280;28042;43.986;22.860;2023-02-28T10:17:23;102478.69;;;3.90;100.00
42385;BME280;28042;43.986;22.860;2023-02-28T10:19:58;102485.19;;;4.00;100.00
42385;BME280;28042;43.986;22.860;2023-02-28T10:25:46;102480.56;;;3.77;100.00
42385;BME280;28042;43.986;22.860;2023-02-28T10:28:16;102440.00;;;3.65;100.00
42385;BME280;28042;43.986;22.860;2023-02-28T10:30:48;102427.91;;;3.58;100.00
42385;BME280;28042;43.986;22.860;2023-02-28T10:33:22;102495.78;;;3.78;100.00
42385;BME280;28042;43.986;22.860;2023-02-28T10:35:48;102448.88;;;3.42;100.00
42385;BME280;28042;43.986;22.860;2023-02-28T10:38:43;102480.59;;;3.51;100.00
42385;BME280;28042;43.986;22.860;2023-02-28T10:41:12;102479.69;;;3.63;100.00
42385;BME280;28042;43.986;22.860;2023-02-28T10:43:40;102417.81;;;3.24;100.00
42385;BME280;28042;43.986;22.860;2023-02-28T10:49:01;102480.56;;;3.77;100.00
42385;BME280;28042;43.986;22.860;2023-02-28T10:51:35;102442.16;;;3.60;100.00
42385;BME280;28042;43.986;22.860;2023-02-28T10:54:02;102463.09;;;3.82;100.00
42385;BME280;28042;43.986;22.860;2023-02-28T10:56:29;102464.59;;;3.74;100.00
42385;BME280;28042;43.986;22.860;2023-02-28T10:58:58;102409.22;;;3.68;100.00
42385;BME280;28042;43.986;22.860;2023-02-28T11:01:40;102455.75;;;4.08;100.00
42385;BME280;28042;43.986;22.860;2023-02-28T11:04:19;102459.13;;;3.99;100.00
42385;BME280;28042;43.986;22.860;2023-02-28T11:06:47;102409.84;;;3.72;100.00
42385;BME280;28042;43.986;22.860;2023-02-28T11:09:23;102446.66;;;3.85;100.00
42385;BME280;28042;43.986;22.860;2023-02-28T11:11:50;102444.88;;;3.97;100.00
42385;BME280;28042;43.986;22.860;2023-02-28T11:14:26;102387.28;;;3.73;100.00
42385;BME280;28042;43.986;22.860;2023-02-28T11:16:53;102401.88;;;3.83;100.00
42385;BME280;28042;43.986;22.860;2023-02-28T11:19:28;102428.00;;;4.06;100.00
42385;BME280;28042;43.986;22.860;2023-02-28T11:22:01;102377.63;;;3.94;100.00
42385;BME280;28042;43.986;22.860;2023-02-28T11:24:36;102436.22;;;4.17;100.00
42385;BME280;28042;43.986;22.860;2023-02-28T11:27:02;102376.25;;;3.88;100.00
42385;BME280;28042;43.986;22.860;2023-02-28T11:29:30;102420.88;;;4.18;100.00
42385;BME280;28042;43.986;22.860;2023-02-28T11:32:13;102440.09;;;4.13;100.00
42385;BME280;28042;43.986;22.860;2023-02-28T11:34:41;102433.00;;;4.00;100.00
42385;BME280;28042;43.986;22.860;2023-02-28T11:37:18;102438.88;;;3.93;100.00
42385;BME280;28042;43.986;22.860;2023-02-28T11:39:45;102377.41;;;3.60;100.00
42385;BME280;28042;43.986;22.860;2023-02-28T11:47:59;102370.03;;;3.75;100.00
42385;BME280;28042;43.986;22.860;2023-02-28T11:53:01;102419.63;;;3.98;100.00
42385;BME280;28042;43.986;22.860;2023-02-28T11:55:45;102422.13;;;3.88;100.00
42385;BME280;28042;43.986;22.860;2023-02-28T12:06:52;102409.66;;;4.11;100.00
42385;BME280;28042;43.986;22.860;2023-02-28T12:26:58;102419.19;;;4.52;100.00
42385;BME280;28042;43.986;22.860;2023-02-28T12:29:29;102360.78;;;4.14;100.00
42385;BME280;28042;43.986;22.860;2023-02-28T12:32:16;102424.81;;;4.49;100.00
42385;BME280;28042;43.986;22.860;2023-02-28T12:34:53;102401.16;;;4.29;100.00
42385;BME280;28042;43.986;22.860;2023-02-28T12:37:41;102413.91;;;4.27;100.00
42385;BME280;28042;43.986;22.860;2023-02-28T12:40:12;102413.84;;;4.39;100.00
42385;BME280;28042;43.986;22.860;2023-02-28T12:42:49;102398.50;;;4.40;100.00
42385;BME280;28042;43.986;22.860;2023-02-28T12:47:48;102344.25;;;3.95;100.00
42385;BME280;28042;43.986;22.860;2023-02-28T12:50:16;102345.03;;;4.08;100.00
42385;BME280;28042;43.986;22.860;2023-02-28T12:52:53;102391.19;;;4.53;100.00
42385;BME280;28042;43.986;22.860;2023-02-28T12:55:29;102396.78;;;4.39;100.00
42385;BME280;28042;43.986;22.860;2023-02-28T13:00:30;102400.91;;;4.32;100.00
42385;BME280;28042;43.986;22.860;2023-02-28T13:09:16;102395.63;;;4.54;100.00
42385;BME280;28042;43.986;22.860;2023-02-28T13:11:51;102362.16;;;4.44;100.00
42385;BME280;28042;43.986;22.860;2023-02-28T13:16:51;102385.09;;;4.38;100.00
42385;BME280;28042;43.986;22.860;2023-02-28T13:19:20;102374.41;;;4.37;100.00
42385;BME280;28042;43.986;22.860;2023-02-28T13:21:48;102337.19;;;4.29;100.00
42385;BME280;28042;43.986;22.860;2023-02-28T13:29:35;102334.66;;;4.15;100.00
42385;BME280;28042;43.986;22.860;2023-02-28T13:47:44;102365.91;;;4.65;100.00
42385;BME280;28042;43.986;22.860;2023-02-28T13:55:28;102370.19;;;4.57;100.00
42385;BME280;28042;43.986;22.860;2023-02-28T14:09:06;102368.72;;;4.29;100.00
42385;BME280;28042;43.986;22.860;2023-02-28T14:11:42;102318.25;;;3.94;100.00
42385;BME280;28042;43.986;22.860;2023-02-28T14:14:10;102295.13;;;3.90;100.00
42385;BME280;28042;43.986;22.860;2023-02-28T14:16:55;102350.56;;;4.31;100.00
42385;BME280;28042;43.986;22.860;2023-02-28T14:19:25;102341.94;;;4.25;100.00
42385;BME280;28042;43.986;22.860;2023-02-28T14:27:53;102353.91;;;4.10;100.00
42385;BME280;28042;43.986;22.860;2023-02-28T14:38:40;102341.69;;;4.17;100.00
42385;BME280;28042;43.986;22.860;2023-02-28T14:41:04;102308.88;;;3.87;100.00
42385;BME280;28042;43.986;22.860;2023-02-28T14:43:36;102365.28;;;4.27;100.00
42385;BME280;28042;43.986;22.860;2023-02-28T14:46:13;102318.47;;;3.91;100.00
42385;BME280;28042;43.986;22.860;2023-02-28T14:48:39;102297.03;;;3.77;100.00
42385;BME280;28042;43.986;22.860;2023-02-28T14:51:05;102319.22;;;3.93;100.00
42385;BME280;28042;43.986;22.860;2023-02-28T14:53:36;102311.63;;;3.98;100.00
42385;BME280;28042;43.986;22.860;2023-02-28T14:56:03;102304.09;;;3.90;100.00
42385;BME280;28042;43.986;22.860;2023-02-28T14:58:31;102351.25;;;4.21;100.00
42385;BME280;28042;43.986;22.860;2023-02-28T15:01:00;102298.59;;;3.92;100.00
42385;BME280;28042;43.986;22.860;2023-02-28T15:05:59;102328.34;;;4.03;100.00
42385;BME280;28042;43.986;22.860;2023-02-28T15:08:26;102372.28;;;4.29;100.00
42385;BME280;28042;43.986;22.860;2023-02-28T15:13:19;102325.41;;;4.06;100.00
42385;BME280;28042;43.986;22.860;2023-02-28T15:21:12;102313.59;;;3.96;100.00
42385;BME280;28042;43.986;22.860;2023-02-28T15:23:41;102378.03;;;4.24;100.00
42385;BME280;28042;43.986;22.860;2023-02-28T15:26:16;102308.09;;;3.74;100.00
42385;BME280;28042;43.986;22.860;2023-02-28T15:28:43;102380.63;;;4.02;100.00
42385;BME280;28042;43.986;22.860;2023-02-28T15:31:23;102373.28;;;4.04;100.00
42385;BME280;28042;43.986;22.860;2023-02-28T15:33:56;102358.44;;;3.86;100.00
42385;BME280;28042;43.986;22.860;2023-02-28T15:36:25;102314.72;;;3.57;100.00
42385;BME280;28042;43.986;22.860;2023-02-28T15:38:52;102363.84;;;3.86;100.00
42385;BME280;28042;43.986;22.860;2023-02-28T15:41:44;102377.63;;;3.94;100.00
42385;BME280;28042;43.986;22.860;2023-02-28T15:47:05;102378.78;;;4.03;100.00